createdAt,value
2017-09-07T00:01:22.337Z,101428.97
2017-09-07T00:03:50.726Z,101424.33
2017-09-07T00:06:19.114Z,101426.91
2017-09-07T00:08:47.581Z,101423.07
2017-09-07T00:11:16.142Z,101419.05
2017-09-07T00:13:44.558Z,101416.36
2017-09-07T00:16:12.982Z,101419.23
2017-09-07T00:18:41.411Z,101417.63
2017-09-07T00:21:09.859Z,101421.09
2017-09-07T00:23:38.326Z,101409.63
2017-09-07T00:26:06.788Z,101405.14
2017-09-07T00:28:35.171Z,101409.38
2017-09-07T00:31:03.594Z,101402.77
2017-09-07T00:33:32.772Z,101406.42
2017-09-07T00:36:01.200Z,101401.61
2017-09-07T00:38:29.674Z,101398.58
2017-09-07T00:40:58.233Z,101396.92
2017-09-07T00:43:27.420Z,101392.80
2017-09-07T00:45:56.671Z,101383.89
2017-09-07T00:48:25.088Z,101386.39
2017-09-07T00:50:53.577Z,101388.20
2017-09-07T00:53:22.055Z,101382.08
2017-09-07T00:55:50.516Z,101387.02
2017-09-07T00:58:18.960Z,101379.30
2017-09-07T01:00:47.392Z,101373.22
2017-09-07T01:03:15.868Z,101375.65
2017-09-07T01:05:44.466Z,101368.94
2017-09-07T01:08:13.649Z,101366.28
2017-09-07T01:10:42.067Z,101367.62
2017-09-07T01:13:10.525Z,101365.37
2017-09-07T01:15:39.783Z,101367.66
2017-09-07T01:18:08.176Z,101374.27
2017-09-07T01:20:36.736Z,101374.00
2017-09-07T01:23:05.300Z,101370.59
2017-09-07T01:25:33.723Z,101371.12
2017-09-07T01:28:02.164Z,101368.59
2017-09-07T01:30:30.589Z,101367.53
2017-09-07T01:32:59.050Z,101366.03
2017-09-07T01:35:27.573Z,101368.38
2017-09-07T01:37:55.969Z,101366.25
2017-09-07T01:40:25.137Z,101366.81
2017-09-07T01:42:53.649Z,101366.25
2017-09-07T01:45:22.846Z,101371.00
2017-09-07T01:47:51.329Z,101366.91
2017-09-07T01:50:19.841Z,101361.31
2017-09-07T01:52:48.226Z,101355.22
2017-09-07T01:55:16.703Z,101360.56
2017-09-07T01:57:45.128Z,101356.38
2017-09-07T02:00:14.371Z,101355.97
2017-09-07T02:02:42.853Z,101356.09
2017-09-07T02:05:11.266Z,101352.88
2017-09-07T02:07:39.688Z,101356.38
2017-09-07T02:10:08.892Z,101358.97
2017-09-07T02:12:37.344Z,101359.50
2017-09-07T02:15:06.522Z,101358.34
2017-09-07T02:17:35.121Z,101351.98
2017-09-07T02:20:03.624Z,101357.66
2017-09-07T02:22:32.845Z,101356.03
2017-09-07T02:25:01.236Z,101356.03
2017-09-07T02:27:29.637Z,101358.78
2017-09-07T02:29:58.334Z,101354.16
2017-09-07T02:32:26.792Z,101350.16
2017-09-07T02:34:55.195Z,101349.04
2017-09-07T02:37:23.609Z,101345.77
2017-09-07T02:39:52.028Z,101350.66
2017-09-07T02:42:20.451Z,101354.70
2017-09-07T02:44:49.614Z,101348.91
2017-09-07T02:47:18.151Z,101344.08
2017-09-07T02:49:47.322Z,101346.64
2017-09-07T02:52:15.710Z,101347.60
2017-09-07T02:54:44.172Z,101344.60
2017-09-07T02:57:12.567Z,101341.58
2017-09-07T02:59:41.007Z,101339.39
2017-09-07T03:02:09.515Z,101348.67
2017-09-07T03:04:37.997Z,101337.45
2017-09-07T03:07:06.416Z,101342.08
2017-09-07T03:09:35.671Z,101346.80
2017-09-07T03:12:04.146Z,101333.89
2017-09-07T03:14:32.651Z,101338.77
2017-09-07T03:17:01.290Z,101340.67
2017-09-07T03:19:29.812Z,101334.70
2017-09-07T03:21:58.213Z,101333.45
2017-09-07T03:24:27.420Z,101332.30
2017-09-07T03:26:56.595Z,101335.45
2017-09-07T03:29:25.035Z,101333.45
2017-09-07T03:31:53.530Z,101328.09
2017-09-07T03:34:21.950Z,101328.21
2017-09-07T03:36:50.378Z,101331.02
2017-09-07T03:39:18.918Z,101325.83
2017-09-07T03:41:47.385Z,101326.55
2017-09-07T03:44:16.630Z,101326.45
2017-09-07T03:46:45.114Z,101322.16
2017-09-07T03:49:13.515Z,101321.98
2017-09-07T03:51:41.950Z,101325.35
2017-09-07T03:54:10.431Z,101323.58
2017-09-07T03:56:39.641Z,101325.02
2017-09-07T03:59:08.929Z,101321.39
2017-09-07T04:01:38.107Z,101324.42
2017-09-07T04:04:07.025Z,101323.19
2017-09-07T04:06:35.447Z,101323.29
2017-09-07T04:09:03.885Z,101328.23
2017-09-07T04:11:33.096Z,101328.16
2017-09-07T04:14:01.725Z,101331.91
2017-09-07T04:16:31.220Z,101329.63
2017-09-07T04:18:59.676Z,101330.62
2017-09-07T04:21:28.162Z,101333.62
2017-09-07T04:23:56.549Z,101330.00
2017-09-07T04:26:24.967Z,101326.42
2017-09-07T04:28:53.440Z,101333.74
2017-09-07T04:31:21.866Z,101332.70
2017-09-07T04:33:50.387Z,101329.56
2017-09-07T04:36:18.893Z,101323.05
2017-09-07T04:38:47.323Z,101320.30
2017-09-07T04:41:15.949Z,101321.39
2017-09-07T04:43:44.411Z,101321.22
2017-09-07T04:46:12.843Z,101319.78
2017-09-07T04:48:42.099Z,101322.69
2017-09-07T04:51:10.510Z,101316.75
2017-09-07T04:53:39.700Z,101320.80
2017-09-07T04:56:08.194Z,101322.19
2017-09-07T04:58:37.406Z,101320.68
2017-09-07T05:01:06.576Z,101323.48
2017-09-07T05:03:35.048Z,101323.84
2017-09-07T05:06:03.564Z,101314.45
2017-09-07T05:08:31.985Z,101317.38
2017-09-07T05:11:00.427Z,101320.27
2017-09-07T05:13:29.671Z,101321.83
2017-09-07T05:15:58.064Z,101322.41
2017-09-07T05:18:26.486Z,101330.86
2017-09-07T05:20:54.881Z,101322.95
2017-09-07T05:23:23.529Z,101322.93
2017-09-07T05:25:52.744Z,101331.31
2017-09-07T05:28:21.959Z,101333.66
2017-09-07T05:30:50.449Z,101328.69
2017-09-07T05:33:18.859Z,101334.86
2017-09-07T05:35:48.072Z,101331.89
2017-09-07T05:38:16.487Z,101331.36
2017-09-07T05:40:44.916Z,101333.84
2017-09-07T05:43:13.470Z,101336.34
2017-09-07T05:45:41.924Z,101335.38
2017-09-07T05:48:11.146Z,101337.16
2017-09-07T05:50:39.552Z,101340.31
2017-09-07T05:53:07.995Z,101342.91
2017-09-07T05:55:36.386Z,101345.44
2017-09-07T05:58:04.950Z,101348.82
2017-09-07T06:00:34.183Z,101348.38
2017-09-07T06:03:02.606Z,101348.67
2017-09-07T06:05:31.780Z,101350.60
2017-09-07T06:08:00.217Z,101354.78
2017-09-07T06:10:28.646Z,101358.52
2017-09-07T06:12:57.156Z,101359.24
2017-09-07T06:15:25.687Z,101359.54
2017-09-07T06:17:54.104Z,101353.05
2017-09-07T06:20:22.529Z,101350.42
2017-09-07T06:22:51.001Z,101351.58
2017-09-07T06:25:19.470Z,101352.55
2017-09-07T06:27:48.667Z,101352.44
2017-09-07T06:30:17.120Z,101353.58
2017-09-07T06:32:45.507Z,101347.00
2017-09-07T06:35:14.693Z,101341.42
2017-09-07T06:37:43.217Z,101346.68
2017-09-07T06:40:11.645Z,101345.35
2017-09-07T06:42:40.099Z,101343.98
2017-09-07T06:45:08.497Z,101345.34
2017-09-07T06:47:36.936Z,101353.32
2017-09-07T06:50:05.324Z,101355.20
2017-09-07T06:52:33.721Z,101355.53
2017-09-07T06:55:02.222Z,101365.92
2017-09-07T06:57:30.620Z,101354.94
2017-09-07T06:59:59.023Z,101362.14
2017-09-07T07:02:28.204Z,101355.05
2017-09-07T07:04:57.419Z,101352.71
2017-09-07T07:07:25.849Z,101357.94
2017-09-07T07:09:54.386Z,101354.69
2017-09-07T07:12:22.952Z,101356.13
2017-09-07T07:14:52.152Z,101356.34
2017-09-07T07:17:21.325Z,101362.41
2017-09-07T07:19:49.741Z,101366.67
2017-09-07T07:22:18.926Z,101354.75
2017-09-07T07:24:48.117Z,101348.07
2017-09-07T07:27:17.311Z,101348.95
2017-09-07T07:29:46.508Z,101350.05
2017-09-07T07:32:14.891Z,101352.14
2017-09-07T07:34:44.071Z,101354.44
2017-09-07T07:37:12.499Z,101356.45
2017-09-07T07:39:40.939Z,101354.80
2017-09-07T07:42:09.398Z,101364.99
2017-09-07T07:44:37.827Z,101362.12
2017-09-07T07:47:07.068Z,101360.36
2017-09-07T07:49:35.490Z,101354.50
2017-09-07T07:52:03.967Z,101358.27
2017-09-07T07:54:32.403Z,101363.26
2017-09-07T07:57:00.796Z,101365.02
2017-09-07T07:59:29.273Z,101365.57
2017-09-07T08:01:58.028Z,101361.57
2017-09-07T08:04:26.446Z,101357.02
2017-09-07T08:06:54.862Z,101364.03
2017-09-07T08:09:23.390Z,101361.52
2017-09-07T08:11:51.831Z,101361.03
2017-09-07T08:14:21.112Z,101367.42
2017-09-07T08:16:49.528Z,101364.66
2017-09-07T08:19:17.964Z,101357.96
2017-09-07T08:21:46.413Z,101365.83
2017-09-07T08:24:14.841Z,101363.37
2017-09-07T08:26:44.023Z,101359.95
2017-09-07T08:29:12.490Z,101353.97
2017-09-07T08:31:40.930Z,101355.39
2017-09-07T08:34:09.336Z,101354.22
2017-09-07T08:36:37.778Z,101350.34
2017-09-07T08:39:06.353Z,101346.58
2017-09-07T08:41:38.606Z,101341.91
2017-09-07T08:44:07.026Z,101350.59
2017-09-07T08:46:35.506Z,101346.73
2017-09-07T08:49:03.967Z,101349.70
2017-09-07T08:51:33.186Z,101349.84
2017-09-07T08:54:01.587Z,101355.45
2017-09-07T08:56:30.007Z,101349.97
2017-09-07T08:58:59.227Z,101357.55
2017-09-07T09:01:27.669Z,101353.31
2017-09-07T09:03:56.169Z,101354.81
2017-09-07T09:06:25.530Z,101347.66
2017-09-07T09:08:53.923Z,101345.05
2017-09-07T09:11:22.357Z,101349.09
2017-09-07T09:13:50.808Z,101347.11
2017-09-07T09:16:20.054Z,101343.53
2017-09-07T09:18:48.626Z,101336.73
2017-09-07T09:21:17.190Z,101345.31
2017-09-07T09:23:46.589Z,101333.59
2017-09-07T09:26:15.791Z,101333.24
2017-09-07T09:28:44.258Z,101334.20
2017-09-07T09:31:13.466Z,101337.88
2017-09-07T09:33:42.673Z,101337.91
2017-09-07T09:36:11.087Z,101330.45
2017-09-07T09:38:39.596Z,101325.90
2017-09-07T09:41:08.008Z,101328.84
2017-09-07T09:43:37.216Z,101328.80
2017-09-07T09:46:05.619Z,101328.51
2017-09-07T09:48:34.464Z,101326.12
2017-09-07T09:51:03.733Z,101329.05
2017-09-07T09:53:32.176Z,101322.34
2017-09-07T09:56:00.620Z,101326.14
2017-09-07T09:58:29.865Z,101321.13
2017-09-07T10:00:58.280Z,101311.10
2017-09-07T10:03:26.684Z,101305.83
2017-09-07T10:05:55.922Z,101316.23
2017-09-07T10:08:24.384Z,101304.36
2017-09-07T10:10:52.798Z,101309.02
2017-09-07T10:13:21.230Z,101298.23
2017-09-07T10:15:50.402Z,101291.93
2017-09-07T10:18:18.863Z,101285.92
2017-09-07T10:20:47.494Z,101287.69
2017-09-07T10:23:16.764Z,101279.89
2017-09-07T10:25:46.248Z,101267.22
2017-09-07T10:28:14.795Z,101269.39
2017-09-07T10:30:43.186Z,101262.00
2017-09-07T10:33:11.585Z,101271.81
2017-09-07T10:35:40.118Z,101271.50
2017-09-07T10:38:08.943Z,101265.25
2017-09-07T10:40:37.334Z,101263.42
2017-09-07T10:43:05.776Z,101263.38
2017-09-07T10:45:34.940Z,101260.66
2017-09-07T10:48:03.433Z,101263.21
2017-09-07T10:50:32.652Z,101267.20
2017-09-07T10:53:01.058Z,101264.41
2017-09-07T10:55:30.315Z,101268.31
2017-09-07T10:57:59.573Z,101262.61
2017-09-07T11:00:28.028Z,101262.74
2017-09-07T11:02:56.433Z,101266.84
2017-09-07T11:05:24.858Z,101260.17
2017-09-07T11:07:54.038Z,101265.02
2017-09-07T11:10:22.459Z,101256.25
2017-09-07T11:12:50.901Z,101255.49
2017-09-07T11:15:19.308Z,101257.86
2017-09-07T11:17:47.698Z,101260.06
2017-09-07T11:20:16.128Z,101258.28
2017-09-07T11:22:45.192Z,101248.12
2017-09-07T11:25:13.694Z,101244.03
2017-09-07T11:27:42.179Z,101234.94
2017-09-07T11:30:11.552Z,101239.20
2017-09-07T11:32:39.983Z,101235.20
2017-09-07T11:35:09.178Z,101243.69
2017-09-07T11:37:37.578Z,101241.25
2017-09-07T11:40:06.090Z,101235.54
2017-09-07T11:42:34.646Z,101236.77
2017-09-07T11:45:03.809Z,101236.09
2017-09-07T11:47:32.207Z,101238.13
2017-09-07T11:50:01.405Z,101242.19
2017-09-07T11:52:29.932Z,101242.46
2017-09-07T11:54:58.362Z,101231.13
2017-09-07T11:57:27.657Z,101232.82
2017-09-07T11:59:56.099Z,101234.00
2017-09-07T12:02:24.523Z,101228.56
2017-09-07T12:04:53.706Z,101231.86
2017-09-07T12:07:22.276Z,101224.25
2017-09-07T12:09:51.639Z,101218.55
2017-09-07T12:12:20.037Z,101220.95
2017-09-07T12:14:48.493Z,101225.73
2017-09-07T12:17:17.040Z,101222.95
2017-09-07T12:19:45.464Z,101215.70
2017-09-07T12:22:13.987Z,101218.08
2017-09-07T12:24:42.448Z,101210.55
2017-09-07T12:27:10.861Z,101211.55
2017-09-07T12:29:39.378Z,101213.24
2017-09-07T12:32:07.814Z,101211.98
2017-09-07T12:34:36.214Z,101208.69
2017-09-07T12:37:05.386Z,101201.90
2017-09-07T12:39:34.554Z,101195.60
2017-09-07T12:42:02.979Z,101200.56
2017-09-07T12:44:32.171Z,101203.06
2017-09-07T12:47:00.596Z,101202.61
2017-09-07T12:49:28.983Z,101200.72
2017-09-07T12:51:57.405Z,101200.77
2017-09-07T12:54:25.887Z,101195.48
2017-09-07T12:56:54.356Z,101197.91
2017-09-07T12:59:22.809Z,101186.16
2017-09-07T13:01:51.245Z,101176.78
2017-09-07T13:04:20.417Z,101173.47
2017-09-07T13:06:48.826Z,101168.84
2017-09-07T13:09:18.078Z,101166.69
2017-09-07T13:11:46.564Z,101165.94
2017-09-07T13:14:14.973Z,101171.67
2017-09-07T13:16:43.394Z,101161.23
2017-09-07T13:19:11.841Z,101159.45
2017-09-07T13:21:40.276Z,101155.27
2017-09-07T13:24:09.024Z,101148.54
2017-09-07T13:26:39.362Z,101149.87
2017-09-07T13:29:08.014Z,101151.78
2017-09-07T13:31:36.658Z,101152.84
2017-09-07T13:34:05.097Z,101157.41
2017-09-07T13:36:34.366Z,101152.28
2017-09-07T13:39:02.823Z,101151.70
2017-09-07T13:41:31.854Z,101139.92
2017-09-07T13:44:00.358Z,101143.33
2017-09-07T13:46:29.539Z,101139.92
2017-09-07T13:48:58.030Z,101140.92
2017-09-07T13:51:27.212Z,101140.30
2017-09-07T13:53:56.525Z,101137.12
2017-09-07T13:56:25.891Z,101133.32
2017-09-07T13:58:57.374Z,101140.75
2017-09-07T14:01:26.811Z,101135.35
2017-09-07T14:03:55.238Z,101129.41
2017-09-07T14:06:23.684Z,101125.08
2017-09-07T14:08:52.262Z,101132.05
2017-09-07T14:11:20.740Z,101133.44
2017-09-07T14:13:49.214Z,101130.48
2017-09-07T14:16:17.866Z,101129.00
2017-09-07T14:18:47.708Z,101125.47
2017-09-07T14:21:16.182Z,101115.80
2017-09-07T14:23:44.737Z,101122.16
2017-09-07T14:26:13.156Z,101113.15
2017-09-07T14:28:41.806Z,101115.95
2017-09-07T14:31:11.130Z,101117.55
2017-09-07T14:33:39.530Z,101120.63
2017-09-07T14:36:08.195Z,101121.44
2017-09-07T14:38:36.889Z,101118.34
2017-09-07T14:41:05.312Z,101118.16
2017-09-07T14:43:33.816Z,101115.38
2017-09-07T14:46:02.306Z,101113.59
2017-09-07T14:48:31.594Z,101116.94
2017-09-07T14:51:00.039Z,101120.91
2017-09-07T14:53:28.507Z,101128.25
2017-09-07T14:55:56.923Z,101118.92
2017-09-07T14:58:25.344Z,101117.08
2017-09-07T15:00:53.838Z,101125.47
2017-09-07T15:03:22.402Z,101122.27
2017-09-07T15:05:51.714Z,101119.09
2017-09-07T15:08:20.274Z,101112.78
2017-09-07T15:10:49.475Z,101116.69
2017-09-07T15:13:18.658Z,101112.29
2017-09-07T15:15:47.111Z,101110.25
2017-09-07T15:18:15.498Z,101115.75
2017-09-07T15:20:43.934Z,101111.55
2017-09-07T15:23:12.432Z,101111.67
2017-09-07T15:25:41.584Z,101104.78
2017-09-07T15:28:10.783Z,101105.17
2017-09-07T15:30:39.238Z,101111.30
2017-09-07T15:33:08.726Z,101110.60
2017-09-07T15:35:37.215Z,101096.80
2017-09-07T15:38:05.654Z,101099.80
2017-09-07T15:40:34.102Z,101100.46
2017-09-07T15:43:02.507Z,101101.68
2017-09-07T15:45:31.715Z,101095.03
2017-09-07T15:48:00.122Z,101097.25
2017-09-07T15:50:28.538Z,101095.16
2017-09-07T15:52:57.006Z,101079.91
2017-09-07T15:55:25.461Z,101077.47
2017-09-07T15:57:53.865Z,101077.52
2017-09-07T16:00:22.308Z,101085.23
2017-09-07T16:02:50.807Z,101077.23
2017-09-07T16:05:19.292Z,101088.65
2017-09-07T16:07:47.805Z,101086.82
2017-09-07T16:10:16.200Z,101072.69
2017-09-07T16:12:45.766Z,101071.92
2017-09-07T16:15:14.238Z,101070.56
2017-09-07T16:17:43.796Z,101077.91
2017-09-07T16:20:12.968Z,101077.43
2017-09-07T16:22:41.431Z,101081.33
2017-09-07T16:25:09.845Z,101076.89
2017-09-07T16:27:38.361Z,101077.84
2017-09-07T16:30:06.815Z,101083.65
2017-09-07T16:32:35.269Z,101081.22
2017-09-07T16:35:03.670Z,101084.39
2017-09-07T16:37:32.937Z,101075.97
2017-09-07T16:40:02.131Z,101074.02
2017-09-07T16:42:30.522Z,101073.20
2017-09-07T16:44:58.962Z,101079.67
2017-09-07T16:47:27.355Z,101074.59
2017-09-07T16:49:55.839Z,101075.30
2017-09-07T16:52:24.251Z,101072.13
2017-09-07T16:54:52.655Z,101067.69
2017-09-07T16:57:21.889Z,101064.69
2017-09-07T16:59:50.309Z,101057.48
2017-09-07T17:02:19.530Z,101058.96
2017-09-07T17:04:48.815Z,101064.52
2017-09-07T17:07:17.296Z,101060.41
2017-09-07T17:09:46.617Z,101065.28
2017-09-07T17:12:15.021Z,101060.55
2017-09-07T17:14:43.437Z,101055.48
2017-09-07T17:17:11.957Z,101059.36
2017-09-07T17:19:40.424Z,101056.97
2017-09-07T17:22:09.688Z,101057.59
2017-09-07T17:24:38.198Z,101048.06
2017-09-07T17:27:06.644Z,101048.42
2017-09-07T17:29:35.058Z,101046.23
2017-09-07T17:32:03.515Z,101041.82
2017-09-07T17:34:31.960Z,101041.89
2017-09-07T17:37:00.410Z,101051.46
2017-09-07T17:39:29.701Z,101047.73
2017-09-07T17:41:58.166Z,101046.19
2017-09-07T17:44:26.580Z,101045.31
2017-09-07T17:46:55.809Z,101043.33
2017-09-07T17:49:24.218Z,101052.03
2017-09-07T17:51:53.422Z,101056.77
2017-09-07T17:54:22.779Z,101056.00
2017-09-07T17:56:51.276Z,101061.14
2017-09-07T17:59:19.726Z,101058.59
2017-09-07T18:01:48.186Z,101052.25
2017-09-07T18:04:17.385Z,101054.09
2017-09-07T18:09:15.108Z,101050.67
2017-09-07T18:11:43.642Z,101052.34
2017-09-07T18:14:13.154Z,101043.89
2017-09-07T18:16:41.574Z,101038.09
2017-09-07T18:19:10.036Z,101028.70
2017-09-07T18:21:38.736Z,101018.89
2017-09-07T18:24:07.217Z,101028.62
2017-09-07T18:26:35.729Z,101032.39
2017-09-07T18:29:04.278Z,101031.08
2017-09-07T18:31:32.705Z,101030.97
2017-09-07T18:34:01.560Z,101038.62
2017-09-07T18:36:31.007Z,101033.78
2017-09-07T18:38:59.458Z,101041.80
2017-09-07T18:41:28.938Z,101048.83
2017-09-07T18:43:57.383Z,101040.17
2017-09-07T18:46:26.553Z,101043.44
2017-09-07T18:48:55.072Z,101038.27
2017-09-07T18:51:24.266Z,101043.44
2017-09-07T18:53:53.462Z,101052.81
2017-09-07T18:56:22.725Z,101051.66
2017-09-07T18:58:51.169Z,101052.00
2017-09-07T19:01:20.073Z,101050.27
2017-09-07T19:03:48.482Z,101050.58
2017-09-07T19:08:51.513Z,101046.00
2017-09-07T19:11:20.756Z,101041.85
2017-09-07T19:13:49.171Z,101043.03
2017-09-07T19:16:17.586Z,101039.41
2017-09-07T19:18:46.739Z,101031.50
2017-09-07T19:21:15.227Z,101038.95
2017-09-07T19:23:43.681Z,101031.09
2017-09-07T19:26:12.972Z,101026.09
2017-09-07T19:28:41.409Z,101025.53
2017-09-07T19:31:10.623Z,101018.70
2017-09-07T19:33:52.470Z,101016.50
2017-09-07T19:36:20.963Z,101018.20
2017-09-07T19:38:49.367Z,101019.38
2017-09-07T19:41:18.562Z,101018.16
2017-09-07T19:43:47.766Z,101018.88
2017-09-07T19:46:16.966Z,101019.81
2017-09-07T19:48:45.378Z,101015.38
2017-09-07T19:51:14.901Z,101007.95
2017-09-07T19:53:43.376Z,101009.38
2017-09-07T19:56:11.886Z,101002.52
2017-09-07T19:58:40.293Z,100989.34
2017-09-07T20:01:08.821Z,100980.69
2017-09-07T20:03:37.273Z,100980.23
2017-09-07T20:06:05.710Z,100968.36
2017-09-07T20:08:34.183Z,100978.00
2017-09-07T20:11:02.679Z,100965.91
2017-09-07T20:13:31.075Z,100968.01
2017-09-07T20:16:00.257Z,100967.90
2017-09-07T20:18:29.425Z,100969.17
2017-09-07T20:20:57.848Z,100969.98
2017-09-07T20:23:26.339Z,100965.92
2017-09-07T20:25:55.517Z,100970.00
2017-09-07T20:28:24.766Z,100961.88
2017-09-07T20:30:53.185Z,100961.58
2017-09-07T20:33:21.604Z,100962.53
2017-09-07T20:35:50.104Z,100964.62
2017-09-07T20:38:18.554Z,100956.97
2017-09-07T20:40:46.989Z,100942.27
2017-09-07T20:43:16.211Z,100948.92
2017-09-07T20:45:44.662Z,100940.88
2017-09-07T20:48:13.129Z,100936.95
2017-09-07T20:50:41.611Z,100931.00
2017-09-07T20:53:10.006Z,100928.09
2017-09-07T20:55:39.373Z,100924.36
2017-09-07T20:58:07.798Z,100923.52
2017-09-07T21:00:36.215Z,100921.66
2017-09-07T21:03:05.383Z,100913.61
2017-09-07T21:05:33.969Z,100919.78
2017-09-07T21:08:02.396Z,100917.13
2017-09-07T21:10:30.821Z,100913.58
2017-09-07T21:12:59.223Z,100907.61
2017-09-07T21:15:28.398Z,100910.68
2017-09-07T21:17:56.869Z,100903.95
2017-09-07T21:20:25.353Z,100906.20
2017-09-07T21:22:53.773Z,100899.73
2017-09-07T21:25:22.951Z,100890.14
2017-09-07T21:27:51.361Z,100882.71
2017-09-07T21:30:20.868Z,100873.74
2017-09-07T21:32:49.258Z,100870.39
2017-09-07T21:35:17.705Z,100868.81
2017-09-07T21:37:46.938Z,100874.66
2017-09-07T21:40:15.416Z,100870.74
2017-09-07T21:42:43.862Z,100880.77
2017-09-07T21:45:13.031Z,100877.16
2017-09-07T21:47:41.454Z,100872.00
2017-09-07T21:50:09.915Z,100867.94
2017-09-07T21:52:38.357Z,100852.67
2017-09-07T21:55:06.795Z,100864.02
2017-09-07T21:57:35.263Z,100862.45
2017-09-07T22:00:04.510Z,100859.84
2017-09-07T22:02:32.959Z,100857.16
2017-09-07T22:05:02.161Z,100849.92
2017-09-07T22:07:31.094Z,100845.50
2017-09-07T22:09:59.508Z,100842.55
2017-09-07T22:12:28.723Z,100842.09
2017-09-07T22:14:57.153Z,100849.72
2017-09-07T22:17:25.621Z,100840.84
2017-09-07T22:19:54.128Z,100836.21
2017-09-07T22:22:22.588Z,100836.31
2017-09-07T22:24:51.035Z,100830.81
2017-09-07T22:27:20.210Z,100824.89
2017-09-07T22:29:48.650Z,100821.62
2017-09-07T22:32:17.995Z,100822.64
2017-09-07T22:34:47.169Z,100811.50
2017-09-07T22:37:15.614Z,100811.13
2017-09-07T22:39:44.012Z,100806.27
2017-09-07T22:42:12.432Z,100807.57
2017-09-07T22:44:41.606Z,100805.17
2017-09-07T22:47:10.037Z,100797.37
2017-09-07T22:49:38.639Z,100785.76
2017-09-07T22:52:07.220Z,100785.30
2017-09-07T22:54:35.639Z,100782.84
2017-09-07T22:57:04.052Z,100780.41
2017-09-07T22:59:32.450Z,100775.19
2017-09-07T23:02:00.855Z,100770.94
2017-09-07T23:04:29.315Z,100769.64
2017-09-07T23:06:57.770Z,100770.02
2017-09-07T23:09:26.950Z,100767.94
2017-09-07T23:11:56.132Z,100767.53
2017-09-07T23:14:24.612Z,100768.70
2017-09-07T23:16:53.283Z,100765.59
2017-09-07T23:19:21.888Z,100761.91
2017-09-07T23:21:50.462Z,100753.13
2017-09-07T23:24:18.866Z,100755.71
2017-09-07T23:26:48.085Z,100752.39
2017-09-07T23:29:17.249Z,100755.67
2017-09-07T23:31:45.752Z,100752.16
2017-09-07T23:34:14.983Z,100753.77
2017-09-07T23:36:43.454Z,100750.66
2017-09-07T23:39:11.856Z,100751.06
2017-09-07T23:41:40.294Z,100747.17
2017-09-07T23:44:09.473Z,100738.75
2017-09-07T23:46:37.919Z,100735.52
2017-09-07T23:49:06.493Z,100745.76
2017-09-07T23:51:34.942Z,100740.74
2017-09-07T23:54:03.352Z,100741.30
2017-09-07T23:56:32.424Z,100737.42
2017-09-07T23:59:00.814Z,100727.42
